Station History

Weather Underground - logo

Station Historical Data
Daily Summary for January 13, 2018 Units:  Both    English   Metric
« Previous Day
Next Day »
Daily Weekly Monthly Yearly Custom
  High: Low: Average:
Temperature: 50.9 °F /  10.5 °C 47.4 °F /  8.6 °C 48.9 °F /  9.4 °C
Dew Point: 50.1 °F /  10.1 °C 46.5 °F /  8.1 °C 48.1 °F /  8.9 °C
Humidity: 97 % 95 % 97 %
Wind Speed: 3.0 mph /  4.8 km/h - 0.5 mph /  0.8 km/h
Wind Gust: 3.0 mph /  4.8 km/h - -
Wind:- - West
Pressure: 30.33 in /  1027 hPa 30.20 in /  1022.6 hPa -
Precipitation: 0.01 in /  0.25 mm    
Historical Graphs
 
 
Tabular Data for January 13, 2018
Time Temperature Dew Point Pressure Wind Wind Speed Wind Gust Humidity Rainfall Rate (Hourly)
00:04 49.7 °F /  9.8 °C 48.3 °F /  9.1 °C 30.29 in /  1025.6 hPa Calm     95 % 0.00 in /  0 mm
00:22 48.6 °F /  9.2 °C 47.2 °F /  8.4 °C 30.28 in /  1025.3 hPa NW 1.2 mph /  1.9 km/h 1.2 mph /  1.9 km/h 95 % 0.00 in /  0 mm
00:32 48.2 °F /  9 °C 46.8 °F /  8.2 °C 30.29 in /  1025.6 hPa NW 2.3 mph /  3.7 km/h 2.3 mph /  3.7 km/h 95 % 0.00 in /  0 mm
00:45 47.9 °F /  8.8 °C 46.8 °F /  8.2 °C 30.28 in /  1025.3 hPa NW 2.3 mph /  3.7 km/h 2.3 mph /  3.7 km/h 96 % 0.00 in /  0 mm
00:51 47.7 °F /  8.7 °C 46.6 °F /  8.1 °C 30.28 in /  1025.3 hPa NW 3.0 mph /  4.8 km/h 3.0 mph /  4.8 km/h 96 % 0.00 in /  0 mm
00:56 47.6 °F /  8.7 °C 46.5 °F /  8.1 °C 30.28 in /  1025.3 hPa NW 2.3 mph /  3.7 km/h 2.3 mph /  3.7 km/h 96 % 0.00 in /  0 mm
01:02 47.6 °F /  8.7 °C 46.5 °F /  8.1 °C 30.28 in /  1025.3 hPa NNW 1.2 mph /  1.9 km/h 1.2 mph /  1.9 km/h 96 % 0.00 in /  0 mm
01:15 47.6 °F /  8.7 °C 46.5 °F /  8.1 °C 30.28 in /  1025.3 hPa WNW 2.3 mph /  3.7 km/h 2.3 mph /  3.7 km/h 96 % 0.00 in /  0 mm
01:27 47.6 °F /  8.7 °C 46.5 °F /  8.1 °C 30.28 in /  1025.3 hPa NW 1.2 mph /  1.9 km/h 1.2 mph /  1.9 km/h 96 % 0.00 in /  0 mm
01:40 47.6 °F /  8.7 °C 46.8 °F /  8.2 °C 30.28 in /  1025.3 hPa NNW 2.3 mph /  3.7 km/h 2.3 mph /  3.7 km/h 97 % 0.00 in /  0 mm
01:52 47.6 °F /  8.7 °C 46.8 °F /  8.2 °C 30.28 in /  1025.3 hPa Calm     97 % 0.00 in /  0 mm
01:57 47.7 °F /  8.7 °C 46.9 °F /  8.3 °C 30.28 in /  1025.3 hPa Calm     97 % 0.00 in /  0 mm
02:06 47.8 °F /  8.8 °C 47.0 °F /  8.3 °C 30.28 in /  1025.3 hPa Calm     97 % 0.00 in /  0 mm
02:11 48.0 °F /  8.9 °C 47.2 °F /  8.4 °C 30.28 in /  1025.3 hPa Calm     97 % 0.00 in /  0 mm
02:23 48.0 °F /  8.9 °C 47.2 °F /  8.4 °C 30.28 in /  1025.3 hPa NW 1.2 mph /  1.9 km/h 1.2 mph /  1.9 km/h 97 % 0.00 in /  0 mm
02:34 48.0 °F /  8.9 °C 47.2 °F /  8.4 °C 30.28 in /  1025.3 hPa NW 1.2 mph /  1.9 km/h 1.2 mph /  1.9 km/h 97 % 0.00 in /  0 mm
02:47 47.9 °F /  8.8 °C 47.1 °F /  8.4 °C 30.29 in /  1025.6 hPa WNW 1.2 mph /  1.9 km/h 1.2 mph /  1.9 km/h 97 % 0.00 in /  0 mm
02:54 48.1 °F /  8.9 °C 47.3 °F /  8.5 °C 30.28 in /  1025.3 hPa NNW 1.2 mph /  1.9 km/h 1.2 mph /  1.9 km/h 97 % 0.00 in /  0 mm
03:10 48.2 °F /  9 °C 47.4 °F /  8.6 °C 30.28 in /  1025.3 hPa NNW 1.0 mph /  1.6 km/h 1.0 mph /  1.6 km/h 97 % 0.00 in /  0 mm
03:40 48.5 °F /  9.2 °C 47.7 °F /  8.7 °C 30.28 in /  1025.3 hPa NNW 2.3 mph /  3.7 km/h 2.3 mph /  3.7 km/h 97 % 0.00 in /  0 mm
03:46 48.5 °F /  9.2 °C 47.7 °F /  8.7 °C 30.28 in /  1025.3 hPa Calm     97 % 0.00 in /  0 mm
03:53 48.6 °F /  9.2 °C 47.8 °F /  8.8 °C 30.28 in /  1025.3 hPa Calm     97 % 0.00 in /  0 mm
04:03 48.5 °F /  9.2 °C 47.7 °F /  8.7 °C 30.28 in /  1025.3 hPa NW 2.3 mph /  3.7 km/h 2.3 mph /  3.7 km/h 97 % 0.00 in /  0 mm
04:09 48.5 °F /  9.2 °C 47.7 °F /  8.7 °C 30.27 in /  1024.9 hPa NW 1.2 mph /  1.9 km/h   97 % 0.00 in /  0 mm
04:17 48.4 °F /  9.1 °C 47.6 °F /  8.7 °C 30.27 in /  1024.9 hPa NW 1.2 mph /  1.9 km/h 1.2 mph /  1.9 km/h 97 % 0.00 in /  0 mm
04:29 48.3 °F /  9.1 °C 47.5 °F /  8.6 °C 30.27 in /  1024.9 hPa Calm     97 % 0.00 in /  0 mm
04:43 48.3 °F /  9.1 °C 47.5 °F /  8.6 °C 30.27 in /  1024.9 hPa Calm     97 % 0.00 in /  0 mm
04:54 48.1 °F /  8.9 °C 47.3 °F /  8.5 °C 30.27 in /  1024.9 hPa WNW 2.3 mph /  3.7 km/h 2.3 mph /  3.7 km/h 97 % 0.00 in /  0 mm
05:04 48.0 °F /  8.9 °C 47.2 °F /  8.4 °C 30.27 in /  1024.9 hPa WNW 1.2 mph /  1.9 km/h   97 % 0.00 in /  0 mm
05:24 47.9 °F /  8.8 °C 47.1 °F /  8.4 °C 30.27 in /  1024.9 hPa NW 2.3 mph /  3.7 km/h 2.3 mph /  3.7 km/h 97 % 0.00 in /  0 mm
05:31 47.9 °F /  8.8 °C 47.1 °F /  8.4 °C 30.27 in /  1024.9 hPa WNW 1.2 mph /  1.9 km/h   97 % 0.00 in /  0 mm
05:40 47.9 °F /  8.8 °C 47.1 °F /  8.4 °C 30.27 in /  1024.9 hPa NW 1.2 mph /  1.9 km/h 1.2 mph /  1.9 km/h 97 % 0.00 in /  0 mm
05:46 48.0 °F /  8.9 °C 47.2 °F /  8.4 °C 30.27 in /  1024.9 hPa Calm     97 % 0.00 in /  0 mm
05:53 47.9 °F /  8.8 °C 47.1 °F /  8.4 °C 30.27 in /  1024.9 hPa NW 2.3 mph /  3.7 km/h 2.3 mph /  3.7 km/h 97 % 0.00 in /  0 mm
06:08 47.8 °F /  8.8 °C 47.0 °F /  8.3 °C 30.27 in /  1024.9 hPa Calm     97 % 0.00 in /  0 mm
06:16 47.9 °F /  8.8 °C 47.1 °F /  8.4 °C 30.27 in /  1024.9 hPa Calm     97 % 0.00 in /  0 mm
06:23 47.8 °F /  8.8 °C 47.0 °F /  8.3 °C 30.28 in /  1025.3 hPa Calm     97 % 0.00 in /  0 mm
06:36 47.9 °F /  8.8 °C 47.1 °F /  8.4 °C 30.28 in /  1025.3 hPa Calm     97 % 0.00 in /  0 mm
06:46 47.9 °F /  8.8 °C 47.1 °F /  8.4 °C 30.28 in /  1025.3 hPa Calm     97 % 0.00 in /  0 mm
06:59 47.9 °F /  8.8 °C 47.1 °F /  8.4 °C 30.28 in /  1025.3 hPa Calm     97 % 0.00 in /  0 mm
07:20 47.7 °F /  8.7 °C 46.9 °F /  8.3 °C 30.29 in /  1025.6 hPa Calm     97 % 0.00 in /  0 mm
07:28 47.7 °F /  8.7 °C 46.9 °F /  8.3 °C 30.29 in /  1025.6 hPa Calm     97 % 0.00 in /  0 mm
07:33 47.6 °F /  8.7 °C 46.8 °F /  8.2 °C 30.30 in /  1026 hPa NNE 1.2 mph /  1.9 km/h 1.2 mph /  1.9 km/h 97 % 0.00 in /  0 mm
07:48 47.4 °F /  8.6 °C 46.6 °F /  8.1 °C 30.30 in /  1026 hPa NNE 1.2 mph /  1.9 km/h   97 % 0.00 in /  0 mm
07:53 47.4 °F /  8.6 °C 46.6 °F /  8.1 °C 30.30 in /  1026 hPa Calm     97 % 0.00 in /  0 mm
08:09 47.4 °F /  8.6 °C 46.6 °F /  8.1 °C 30.31 in /  1026.3 hPa Calm     97 % 0.00 in /  0 mm
08:25 47.6 °F /  8.7 °C 46.8 °F /  8.2 °C 30.31 in /  1026.3 hPa Calm     97 % 0.00 in /  0 mm
08:30 47.6 °F /  8.7 °C 46.8 °F /  8.2 °C 30.31 in /  1026.3 hPa Calm     97 % 0.01 in /  0.25 mm
08:36 47.6 °F /  8.7 °C 46.8 °F /  8.2 °C 30.31 in /  1026.3 hPa Calm   0.1 mph /  0.2 km/h 97 % 0.01 in /  0.25 mm
08:51 47.7 °F /  8.7 °C 46.9 °F /  8.3 °C 30.31 in /  1026.3 hPa Calm     97 % 0.01 in /  0.25 mm
09:16 47.7 °F /  8.7 °C 46.9 °F /  8.3 °C 30.32 in /  1026.6 hPa Calm     97 % 0.01 in /  0.25 mm
09:25 48.1 °F /  8.9 °C 47.3 °F /  8.5 °C 30.32 in /  1026.6 hPa Calm     97 % 0.01 in /  0.25 mm
09:30 48.1 °F /  8.9 °C 47.3 °F /  8.5 °C 30.32 in /  1026.6 hPa Calm     97 % 0.00 in /  0 mm
09:38 48.3 °F /  9.1 °C 47.5 °F /  8.6 °C 30.32 in /  1026.6 hPa Calm     97 % 0.00 in /  0 mm
09:45 48.5 °F /  9.2 °C 47.7 °F /  8.7 °C 30.32 in /  1026.6 hPa Calm     97 % 0.00 in /  0 mm
09:59 48.4 °F /  9.1 °C 47.6 °F /  8.7 °C 30.32 in /  1026.6 hPa Calm     97 % 0.00 in /  0 mm
10:06 48.6 °F /  9.2 °C 47.8 °F /  8.8 °C 30.33 in /  1027 hPa Calm     97 % 0.00 in /  0 mm
10:15 48.8 °F /  9.3 °C 48.0 °F /  8.9 °C 30.32 in /  1026.6 hPa NNE 1.0 mph /  1.6 km/h 1.0 mph /  1.6 km/h 97 % 0.00 in /  0 mm
10:44 49.1 °F /  9.5 °C 48.3 °F /  9.1 °C 30.32 in /  1026.6 hPa Calm     97 % 0.00 in /  0 mm
10:51 49.0 °F /  9.4 °C 48.2 °F /  9 °C 30.31 in /  1026.3 hPa NNE 1.2 mph /  1.9 km/h   97 % 0.00 in /  0 mm
10:56 48.8 °F /  9.3 °C 48.0 °F /  8.9 °C 30.32 in /  1026.6 hPa Calm     97 % 0.00 in /  0 mm
11:01 49.0 °F /  9.4 °C 48.2 °F /  9 °C 30.31 in /  1026.3 hPa Calm     97 % 0.00 in /  0 mm
11:14 49.2 °F /  9.6 °C 48.4 °F /  9.1 °C 30.31 in /  1026.3 hPa Calm     97 % 0.00 in /  0 mm
11:19 49.4 °F /  9.7 °C 48.6 °F /  9.2 °C 30.30 in /  1026 hPa NNE 1.2 mph /  1.9 km/h   97 % 0.00 in /  0 mm
11:26 49.4 °F /  9.7 °C 48.6 °F /  9.2 °C 30.30 in /  1026 hPa Calm     97 % 0.00 in /  0 mm
11:33 49.4 °F /  9.7 °C 48.6 °F /  9.2 °C 30.29 in /  1025.6 hPa Calm     97 % 0.00 in /  0 mm
11:44 49.8 °F /  9.9 °C 49.0 °F /  9.4 °C 30.28 in /  1025.3 hPa Calm     97 % 0.00 in /  0 mm
12:03 49.7 °F /  9.8 °C 48.9 °F /  9.4 °C 30.27 in /  1024.9 hPa Calm     97 % 0.00 in /  0 mm
12:14 50.0 °F /  10 °C 49.2 °F /  9.6 °C 30.27 in /  1024.9 hPa Calm     97 % 0.00 in /  0 mm
12:19 49.9 °F /  9.9 °C 49.1 °F /  9.5 °C 30.26 in /  1024.6 hPa Calm     97 % 0.00 in /  0 mm
12:24 50.0 °F /  10 °C 49.2 °F /  9.6 °C 30.26 in /  1024.6 hPa NNE 1.2 mph /  1.9 km/h 1.2 mph /  1.9 km/h 97 % 0.00 in /  0 mm
12:29 50.1 °F /  10.1 °C 49.3 °F /  9.6 °C 30.26 in /  1024.6 hPa NW 2.3 mph /  3.7 km/h 2.3 mph /  3.7 km/h 97 % 0.00 in /  0 mm
12:37 50.0 °F /  10 °C 49.2 °F /  9.6 °C 30.25 in /  1024.3 hPa Calm     97 % 0.00 in /  0 mm
12:53 50.2 °F /  10.1 °C 49.4 °F /  9.7 °C 30.25 in /  1024.3 hPa Calm     97 % 0.00 in /  0 mm
13:03 49.9 °F /  9.9 °C 49.1 °F /  9.5 °C 30.24 in /  1023.9 hPa West 1.2 mph /  1.9 km/h   97 % 0.00 in /  0 mm
13:36 50.5 °F /  10.3 °C 49.7 °F /  9.8 °C 30.23 in /  1023.6 hPa Calm     97 % 0.00 in /  0 mm
13:43 50.6 °F /  10.3 °C 49.8 °F /  9.9 °C 30.23 in /  1023.6 hPa Calm     97 % 0.00 in /  0 mm
13:50 50.7 °F /  10.4 °C 49.9 °F /  9.9 °C 30.23 in /  1023.6 hPa Calm     97 % 0.00 in /  0 mm
13:59 50.9 °F /  10.5 °C 50.1 °F /  10.1 °C 30.23 in /  1023.6 hPa NNW 1.2 mph /  1.9 km/h   97 % 0.00 in /  0 mm
14:05 50.8 °F /  10.4 °C 50.0 °F /  10 °C 30.22 in /  1023.2 hPa Calm     97 % 0.00 in /  0 mm
14:13 50.8 °F /  10.4 °C 50.0 °F /  10 °C 30.22 in /  1023.2 hPa Calm     97 % 0.00 in /  0 mm
14:19 50.7 °F /  10.4 °C 49.9 °F /  9.9 °C 30.22 in /  1023.2 hPa Calm     97 % 0.00 in /  0 mm
14:27 50.6 °F /  10.3 °C 49.8 °F /  9.9 °C 30.22 in /  1023.2 hPa WSW 1.2 mph /  1.9 km/h 1.2 mph /  1.9 km/h 97 % 0.00 in /  0 mm
14:33 50.5 °F /  10.3 °C 49.7 °F /  9.8 °C 30.22 in /  1023.2 hPa Calm     97 % 0.00 in /  0 mm
14:57 50.7 °F /  10.4 °C 49.9 °F /  9.9 °C 30.21 in /  1022.9 hPa Calm     97 % 0.00 in /  0 mm
15:05 50.6 °F /  10.3 °C 49.8 °F /  9.9 °C 30.21 in /  1022.9 hPa NW 1.2 mph /  1.9 km/h 1.2 mph /  1.9 km/h 97 % 0.00 in /  0 mm
15:18 50.5 °F /  10.3 °C 49.7 °F /  9.8 °C 30.20 in /  1022.6 hPa NW 1.2 mph /  1.9 km/h   97 % 0.00 in /  0 mm
15:44 50.3 °F /  10.2 °C 49.5 °F /  9.7 °C 30.21 in /  1022.9 hPa Calm     97 % 0.00 in /  0 mm
15:59 50.2 °F /  10.1 °C 49.4 °F /  9.7 °C 30.21 in /  1022.9 hPa West 1.2 mph /  1.9 km/h 1.2 mph /  1.9 km/h 97 % 0.00 in /  0 mm
16:07 50.2 °F /  10.1 °C 49.4 °F /  9.7 °C 30.21 in /  1022.9 hPa Calm     97 % 0.00 in /  0 mm
16:14 50.3 °F /  10.2 °C 49.5 °F /  9.7 °C 30.21 in /  1022.9 hPa West 1.2 mph /  1.9 km/h   97 % 0.00 in /  0 mm
16:24 50.4 °F /  10.2 °C 49.6 °F /  9.8 °C 30.21 in /  1022.9 hPa Calm     97 % 0.00 in /  0 mm
16:39 50.3 °F /  10.2 °C 49.5 °F /  9.7 °C 30.21 in /  1022.9 hPa Calm     97 % 0.00 in /  0 mm
16:52 50.3 °F /  10.2 °C 49.5 °F /  9.7 °C 30.22 in /  1023.2 hPa Calm     97 % 0.00 in /  0 mm
16:59 50.2 °F /  10.1 °C 49.4 °F /  9.7 °C 30.22 in /  1023.2 hPa ESE 1.2 mph /  1.9 km/h   97 % 0.00 in /  0 mm
17:20 50.0 °F /  10 °C 49.2 °F /  9.6 °C 30.21 in /  1022.9 hPa SE 1.2 mph /  1.9 km/h 1.2 mph /  1.9 km/h 97 % 0.00 in /  0 mm
17:42 49.9 °F /  9.9 °C 49.1 °F /  9.5 °C 30.21 in /  1022.9 hPa Calm     97 % 0.00 in /  0 mm
17:53 49.8 °F /  9.9 °C 49.0 °F /  9.4 °C 30.21 in /  1022.9 hPa Calm     97 % 0.00 in /  0 mm
18:06 49.8 °F /  9.9 °C 49.0 °F /  9.4 °C 30.21 in /  1022.9 hPa Calm     97 % 0.00 in /  0 mm
18:11 49.8 °F /  9.9 °C 49.0 °F /  9.4 °C 30.21 in /  1022.9 hPa Calm     97 % 0.00 in /  0 mm
18:17 49.8 °F /  9.9 °C 49.0 °F /  9.4 °C 30.22 in /  1023.2 hPa Calm     97 % 0.00 in /  0 mm
18:24 49.9 °F /  9.9 °C 49.1 °F /  9.5 °C 30.22 in /  1023.2 hPa WNW 1.2 mph /  1.9 km/h   97 % 0.00 in /  0 mm
18:53 49.6 °F /  9.8 °C 48.8 °F /  9.3 °C 30.22 in /  1023.2 hPa Calm     97 % 0.00 in /  0 mm
19:01 49.7 °F /  9.8 °C 48.9 °F /  9.4 °C 30.22 in /  1023.2 hPa Calm     97 % 0.00 in /  0 mm
19:39 49.3 °F /  9.6 °C 48.5 °F /  9.2 °C 30.23 in /  1023.6 hPa Calm     97 % 0.00 in /  0 mm
19:46 49.3 °F /  9.6 °C 48.5 °F /  9.2 °C 30.23 in /  1023.6 hPa Calm     97 % 0.00 in /  0 mm
19:51 49.4 °F /  9.7 °C 48.6 °F /  9.2 °C 30.23 in /  1023.6 hPa Calm     97 % 0.00 in /  0 mm
20:01 49.3 °F /  9.6 °C 48.5 °F /  9.2 °C 30.23 in /  1023.6 hPa Calm     97 % 0.00 in /  0 mm
20:12 49.3 °F /  9.6 °C 48.5 °F /  9.2 °C 30.23 in /  1023.6 hPa Calm     97 % 0.00 in /  0 mm
20:21 49.2 °F /  9.6 °C 48.4 °F /  9.1 °C 30.24 in /  1023.9 hPa Calm     97 % 0.00 in /  0 mm
20:32 49.1 °F /  9.5 °C 48.3 °F /  9.1 °C 30.24 in /  1023.9 hPa Calm     97 % 0.00 in /  0 mm
20:58 49.1 °F /  9.5 °C 48.3 °F /  9.1 °C 30.24 in /  1023.9 hPa Calm     97 % 0.00 in /  0 mm
21:05 49.0 °F /  9.4 °C 48.2 °F /  9 °C 30.24 in /  1023.9 hPa Calm     97 % 0.00 in /  0 mm
21:13 49.0 °F /  9.4 °C 48.2 °F /  9 °C 30.24 in /  1023.9 hPa Calm     97 % 0.00 in /  0 mm
21:24 49.0 °F /  9.4 °C 48.2 °F /  9 °C 30.24 in /  1023.9 hPa Calm     97 % 0.00 in /  0 mm
21:29 49.0 °F /  9.4 °C 48.2 °F /  9 °C 30.24 in /  1023.9 hPa Calm     97 % 0.00 in /  0 mm
21:37 49.0 °F /  9.4 °C 48.2 °F /  9 °C 30.24 in /  1023.9 hPa Calm     97 % 0.00 in /  0 mm
22:08 49.1 °F /  9.5 °C 48.3 °F /  9.1 °C 30.24 in /  1023.9 hPa NW 1.2 mph /  1.9 km/h   97 % 0.00 in /  0 mm
22:27 48.9 °F /  9.4 °C 48.1 °F /  8.9 °C 30.24 in /  1023.9 hPa Calm     97 % 0.00 in /  0 mm
22:38 48.9 °F /  9.4 °C 48.1 °F /  8.9 °C 30.24 in /  1023.9 hPa Calm     97 % 0.00 in /  0 mm
22:47 48.9 °F /  9.4 °C 48.1 °F /  8.9 °C 30.25 in /  1024.3 hPa Calm     97 % 0.00 in /  0 mm
23:04 48.8 °F /  9.3 °C 48.0 °F /  8.9 °C 30.25 in /  1024.3 hPa Calm     97 % 0.00 in /  0 mm
23:11 48.7 °F /  9.3 °C 47.9 °F /  8.8 °C 30.25 in /  1024.3 hPa NW 1.2 mph /  1.9 km/h 1.2 mph /  1.9 km/h 97 % 0.00 in /  0 mm
23:20 48.5 °F /  9.2 °C 47.7 °F /  8.7 °C 30.25 in /  1024.3 hPa Calm     97 % 0.00 in /  0 mm
23:27 48.5 °F /  9.2 °C 47.7 °F /  8.7 °C 30.25 in /  1024.3 hPa Calm     97 % 0.00 in /  0 mm
23:32 48.5 °F /  9.2 °C 47.7 °F /  8.7 °C 30.25 in /  1024.3 hPa Calm     97 % 0.00 in /  0 mm
23:39 48.5 °F /  9.2 °C 47.7 °F /  8.7 °C 30.25 in /  1024.3 hPa Calm     97 % 0.00 in /  0 mm
23:45 48.5 °F /  9.2 °C 47.7 °F /  8.7 °C 30.25 in /  1024.3 hPa Calm     97 % 0.00 in /  0 mm
23:50 48.5 °F /  9.2 °C 47.7 °F /  8.7 °C 30.25 in /  1024.3 hPa Calm     97 % 0.00 in /  0 mm
23:58 48.5 °F /  9.2 °C 47.7 °F /  8.7 °C 30.24 in /  1023.9 hPa Calm     97 % 0.00 in /  0 mm
Park Place, Exeter, Tulare County, California, USA
Compliments of Weather Underground - 2 mb